Weather History for KGOV - August, 2014

Change the Weather History Date:

Friday, August 29, 2014

  Actual Average (KHTL) Record (KHTL)
Temperature  
Mean Temperature 64 °F 63 °F  
Max Temperature 74 °F 75 °F 94 °F (1925)
Min Temperature 54 °F 51 °F 29 °F (1982)
Degree Days  
Heating Degree Days 1 4  
Month to date heating degree days 72  
Since 1 June heating degree days 243  
Since 1 July heating degree days 119  
Cooling Degree Days 0 2  
Month to date cooling degree days 74  
Year to date cooling degree days 261  
Since 1 June cooling degree days 245  
Growing Degree Days 14 (Base 50)    
Moisture  
Dew Point 59 °F    
Average Humidity 88    
Maximum Humidity 100    
Minimum Humidity 71    
Precipitation  
Precipitation 0.00 in 0.10 in 1.44 in (1932)
Month to date precipitation 3.19  
Year to date precipitation 18.91  
Sea Level Pressure  
Sea Level Pressure 30.05 in    
Wind  
Wind Speed 5 mph (SE)    
Max Wind Speed 14 mph    
Max Gust Speed 25 mph    
Visibility 9 miles    
Events Rain    
T = Trace of Precipitation, MM = Missing Value Source: NWS Daily Summary

Daily Weather History Graph

Daily Weather History Graph

Search for Another Location

Airport or City:

Trip Planner

Search our weather history database for the weather conditions in past years. The results will help you decide how hot, cold, wet, or windy it might be!

Date:

Astronomy

Aug. 29, 2014 Rise Set
Actual Time 6:57 AM EDT 8:20 PM EDT
Civil Twilight 6:27 AM EDT 8:51 PM EDT
Nautical Twilight 5:50 AM EDT 9:27 PM EDT
Astronomical Twilight 5:11 AM EDT 10:06 PM EDT
Moon 10:57 AM EDT (8/29) 10:06 PM EDT (8/29)
Length of Visible Light 14h 23m
Length of Day
13h 23m
Waxing Crescent, 15% of the Moon is Illuminated
Aug 29
Waxing Crescent
Sep 2
First Quarter
Sep 8
Full
Sep 15
Last Quarter
Sep 24
New

Hourly Weather History & Observations

Time (EDT) Temp. Dew Point Humidity Pressure Visibility Wind Dir Wind Speed Gust Speed Precip Events Conditions
12:15 AM 54.0 °F 52.7 °F 95% 30.14 in 10.0 mi Calm Calm - N/A   Clear
12:35 AM 54.0 °F 53.1 °F 97% 30.14 in 10.0 mi Calm Calm - N/A   Clear
12:55 AM 54.0 °F 52.9 °F 96% 30.14 in 10.0 mi Calm Calm - N/A   Clear
1:15 AM 54.0 °F 52.7 °F 95% 30.14 in 10.0 mi East 3.5 mph - N/A   Clear
1:35 AM 54.0 °F 52.3 °F 94% 30.14 in 10.0 mi East 3.5 mph - N/A   Clear
1:55 AM 54.0 °F 52.7 °F 95% 30.14 in 10.0 mi Calm Calm - N/A   Clear
2:15 AM 54.0 °F 53.1 °F 97% 30.14 in 10.0 mi ESE 3.5 mph - N/A   Clear
2:35 AM 54.0 °F 52.7 °F 95% 30.13 in 10.0 mi Calm Calm - N/A   Clear
2:55 AM 54.1 °F 52.9 °F 95% 30.13 in 10.0 mi East 4.6 mph - N/A   Clear
3:14 AM 54.0 °F 52.7 °F 95% 30.12 in 10.0 mi East 4.6 mph - N/A   Clear
3:35 AM 54.0 °F 52.9 °F 96% 30.12 in 10.0 mi Calm Calm - N/A   Clear
3:55 AM 55.4 °F 53.8 °F 94% 30.11 in 10.0 mi East 4.6 mph - N/A   Clear
4:14 AM 55.8 °F 54.5 °F 96% 30.10 in 10.0 mi ESE 3.5 mph - N/A   Scattered Clouds
4:35 AM 56.5 °F 53.8 °F 91% 30.11 in 10.0 mi ESE 3.5 mph - N/A   Mostly Cloudy
4:55 AM 55.6 °F 53.8 °F 94% 30.10 in 10.0 mi ESE 3.5 mph - N/A   Mostly Cloudy
5:14 AM 56.5 °F 54.1 °F 92% 30.10 in 10.0 mi SE 4.6 mph - N/A   Overcast
5:35 AM 56.5 °F 52.7 °F 87% 30.10 in 10.0 mi SE 4.6 mph - N/A   Mostly Cloudy
5:55 AM 56.5 °F 52.2 °F 85% 30.11 in 10.0 mi ESE 5.8 mph - N/A   Overcast
6:15 AM 56.5 °F 51.4 °F 83% 30.11 in 10.0 mi SE 5.8 mph - N/A   Overcast
6:34 AM 56.8 °F 50.9 °F 80% 30.11 in 10.0 mi SE 5.8 mph - N/A   Overcast
6:55 AM 57.2 °F 51.1 °F 80% 30.11 in 10.0 mi SE 5.8 mph - N/A   Overcast
7:14 AM 57.2 °F 51.4 °F 81% 30.11 in 10.0 mi SSE 3.5 mph - N/A Rain Light Rain
7:35 AM 57.2 °F 52.0 °F 83% 30.11 in 10.0 mi SSE 6.9 mph - N/A Rain Rain
7:55 AM 56.5 °F 54.5 °F 93% 30.12 in 3.0 mi SSE 5.8 mph - N/A Rain Heavy Rain
8:14 AM 56.5 °F 55.4 °F 96% 30.11 in 10.0 mi SE 4.6 mph - N/A Rain Rain
8:35 AM 56.5 °F 55.9 °F 98% 30.11 in 7.0 mi SE 8.1 mph - N/A Rain Light Rain
8:55 AM 56.5 °F 55.9 °F 98% 30.10 in 10.0 mi SE 6.9 mph - N/A   Drizzle
9:15 AM 56.5 °F 55.8 °F 97% 30.10 in 10.0 mi SE 8.1 mph - N/A Rain Light Rain
9:35 AM 56.5 °F 55.9 °F 98% 30.09 in 7.0 mi SE 8.1 mph - N/A Rain Rain
9:55 AM 56.5 °F 56.3 °F 99% 30.09 in 10.0 mi ESE 8.1 mph - N/A   Light Drizzle
10:14 AM 59.0 °F 58.8 °F 99% 30.09 in 10.0 mi SE 5.8 mph - N/A   Overcast
10:35 AM 59.0 °F 58.3 °F 97% 30.09 in 10.0 mi SE 4.6 mph - N/A Rain Heavy Rain
10:55 AM 59.0 °F 58.3 °F 97% 30.08 in 10.0 mi ESE 6.9 mph - N/A Rain Light Rain
11:15 AM 59.0 °F 58.3 °F 97% 30.08 in 7.0 mi ESE 8.1 mph - N/A Rain Light Rain
11:35 AM 59.0 °F 58.3 °F 97% 30.08 in 2.5 mi SE 8.1 mph - N/A Rain Heavy Rain
11:55 AM 59.0 °F 58.5 °F 98% 30.09 in 2.5 mi SSE 3.5 mph - N/A Rain Heavy Rain
12:15 PM 59.0 °F 59.0 °F 100% 30.08 in 3.0 mi ESE 5.8 mph - N/A Rain Rain
12:34 PM 59.7 °F 59.7 °F 100% 30.08 in 5.0 mi SE 8.1 mph - N/A Rain Light Rain
12:55 PM 60.1 °F 60.1 °F 100% 30.06 in 7.0 mi ESE 5.8 mph - N/A Rain Light Rain
1:15 PM 59.9 °F 59.9 °F 100% 30.06 in 5.0 mi ESE 5.8 mph - N/A Rain Light Rain
1:34 PM 61.9 °F 61.9 °F 100% 30.05 in 10.0 mi ESE 8.1 mph - N/A   Overcast
1:55 PM 65.3 °F 63.9 °F 95% 30.04 in 10.0 mi SE 8.1 mph - N/A   Overcast
2:15 PM 69.1 °F 64.9 °F 87% 30.04 in 10.0 mi SSE 10.4 mph - N/A   Mostly Cloudy
2:34 PM 69.1 °F 62.6 °F 80% 30.04 in 10.0 mi SSE 11.5 mph 19.6 mph N/A   Mostly Cloudy
2:55 PM 69.1 °F 61.5 °F 77% 30.03 in 10.0 mi South 6.9 mph 17.3 mph N/A   Overcast
3:15 PM 69.6 °F 62.6 °F 78% 30.02 in 10.0 mi SSE 10.4 mph - N/A   Overcast
3:34 PM 70.0 °F 62.6 °F 77% 30.01 in 10.0 mi SSE 11.5 mph 17.3 mph N/A   Overcast
3:55 PM 70.0 °F 62.1 °F 76% 30.01 in 10.0 mi South 11.5 mph 18.4 mph N/A   Mostly Cloudy
4:15 PM 71.6 °F 63.7 °F 76% 30.00 in 10.0 mi SSE 11.5 mph 18.4 mph N/A   Overcast
4:34 PM 71.2 °F 62.4 °F 74% 30.00 in 10.0 mi South 12.7 mph 19.6 mph N/A   Scattered Clouds
4:55 PM 74.1 °F 64.8 °F 72% 29.99 in 10.0 mi SSE 10.4 mph 17.3 mph N/A   Clear
5:15 PM 74.3 °F 64.2 °F 71% 29.99 in 10.0 mi South 10.4 mph 25.3 mph N/A   Clear
5:34 PM 74.3 °F 64.8 °F 72% 29.98 in 10.0 mi SSE 10.4 mph - N/A   Clear
5:55 PM 73.8 °F 63.9 °F 71% 29.97 in 10.0 mi South 13.8 mph 20.7 mph N/A   Clear
6:15 PM 73.9 °F 64.6 °F 72% 29.97 in 10.0 mi SSE 13.8 mph 18.4 mph N/A   Clear
6:35 PM 72.5 °F 63.9 °F 74% 29.97 in 10.0 mi South 6.9 mph - N/A   Clear
6:54 PM 70.5 °F 62.6 °F 76% 29.97 in 10.0 mi South 11.5 mph 16.1 mph N/A   Clear
7:15 PM 70.0 °F 62.8 °F 78% 29.97 in 10.0 mi SSE 5.8 mph - N/A   Clear
7:34 PM 69.3 °F 62.4 °F 79% 29.97 in 10.0 mi SSE 10.4 mph - N/A   Clear
7:55 PM 69.1 °F 62.6 °F 80% 29.96 in 10.0 mi SSE 6.9 mph - N/A   Clear
8:15 PM 69.1 °F 63.0 °F 81% 29.96 in 10.0 mi SSE 8.1 mph - N/A   Scattered Clouds
8:35 PM 69.1 °F 63.0 °F 81% 29.97 in 10.0 mi SSE 9.2 mph - N/A   Clear
8:55 PM 69.1 °F 63.7 °F 83% 29.97 in 10.0 mi SSE 5.8 mph - N/A   Mostly Cloudy
9:15 PM 69.1 °F 63.7 °F 83% 29.97 in 10.0 mi SE 8.1 mph - N/A   Overcast
9:35 PM 69.1 °F 63.7 °F 83% 29.96 in 10.0 mi SSE 6.9 mph - N/A   Scattered Clouds
9:55 PM 69.1 °F 63.7 °F 83% 29.97 in 10.0 mi SSE 9.2 mph - N/A   Clear
10:15 PM 69.1 °F 63.9 °F 83% 29.97 in 10.0 mi South 6.9 mph - N/A   Clear
10:34 PM 69.1 °F 63.9 °F 83% 29.97 in 10.0 mi South 4.6 mph - N/A   Mostly Cloudy
10:55 PM 69.1 °F 64.2 °F 84% 29.96 in 10.0 mi SSE 5.8 mph - N/A   Mostly Cloudy
11:15 PM 69.1 °F 64.0 °F 84% 29.96 in 10.0 mi SSE 6.9 mph - N/A   Clear
11:34 PM 69.1 °F 64.0 °F 84% 29.96 in 10.0 mi SSE 6.9 mph - N/A Rain Light Rain
11:55 PM 69.1 °F 64.9 °F 87% 29.96 in 10.0 mi SSE 5.8 mph - N/A   Scattered Clouds